Terminal Aerodrome Forecast
Issued by NWS Grand Forks, ND

Home | Current Version | Previous Version | Graphics & Text | Print | Product List | Glossary On
Versions: 1 2 3 4 5 6 7 8 9 10 11 12 13 14
000
FTUS43 KFGF 231700
TAFFAR
TAF
KFAR 231739Z 2318/2418 07003KT P6SM SCT250
     FM232200 15005KT P6SM BKN250
     FM240400 12009KT P6SM OVC080
     FM240700 12009KT P6SM -RA OVC040=

USA.gov is the U.S. government's official web portal to all federal, state and local government web resources and services.